sensor_id;sensor_type;location;lat;lon;timestamp;pressure;altitude;pressure_sealevel;temperature;humidity
3748;BME280;1889;50.058;8.688;2023-01-23T00:02:03;101723.47;;;7.02;61.41
3748;BME280;1889;50.058;8.688;2023-01-23T00:04:32;101721.47;;;7.31;60.33
3748;BME280;1889;50.058;8.688;2023-01-23T00:07:02;101725.42;;;6.73;61.56
3748;BME280;1889;50.058;8.688;2023-01-23T00:09:31;101717.02;;;7.06;61.08
3748;BME280;1889;50.058;8.688;2023-01-23T00:12:00;101712.45;;;6.96;61.02
3748;BME280;1889;50.058;8.688;2023-01-23T00:14:30;101719.00;;;6.60;61.78
3748;BME280;1889;50.058;8.688;2023-01-23T00:16:59;101718.83;;;6.90;61.30
3748;BME280;1889;50.058;8.688;2023-01-23T00:19:28;101721.14;;;7.15;60.64
3748;BME280;1889;50.058;8.688;2023-01-23T00:21:59;101719.53;;;7.20;60.60
3748;BME280;1889;50.058;8.688;2023-01-23T00:24:28;101719.75;;;7.11;60.89
3748;BME280;1889;50.058;8.688;2023-01-23T00:26:58;101719.82;;;7.34;60.20
3748;BME280;1889;50.058;8.688;2023-01-23T00:29:27;101727.09;;;7.27;60.38
3748;BME280;1889;50.058;8.688;2023-01-23T00:31:56;101725.80;;;7.08;60.58
3748;BME280;1889;50.058;8.688;2023-01-23T00:34:26;101724.69;;;7.17;60.64
3748;BME280;1889;50.058;8.688;2023-01-23T00:36:55;101721.43;;;7.27;60.56
3748;BME280;1889;50.058;8.688;2023-01-23T00:39:24;101726.45;;;7.39;60.26
3748;BME280;1889;50.058;8.688;2023-01-23T00:41:53;101722.90;;;7.35;60.28
3748;BME280;1889;50.058;8.688;2023-01-23T00:44:23;101725.02;;;7.53;59.70
3748;BME280;1889;50.058;8.688;2023-01-23T00:46:52;101727.64;;;7.33;60.09
3748;BME280;1889;50.058;8.688;2023-01-23T00:49:22;101727.44;;;7.23;60.36
3748;BME280;1889;50.058;8.688;2023-01-23T00:51:51;101729.22;;;7.45;59.84
3748;BME280;1889;50.058;8.688;2023-01-23T00:54:23;101731.18;;;7.35;60.13
3748;BME280;1889;50.058;8.688;2023-01-23T00:56:53;101734.27;;;7.36;60.24
3748;BME280;1889;50.058;8.688;2023-01-23T00:59:22;101733.73;;;7.11;60.12
3748;BME280;1889;50.058;8.688;2023-01-23T01:01:51;101732.83;;;7.30;60.09
3748;BME280;1889;50.058;8.688;2023-01-23T01:04:21;101730.02;;;7.22;59.59
3748;BME280;1889;50.058;8.688;2023-01-23T01:06:50;101735.13;;;7.16;59.88
3748;BME280;1889;50.058;8.688;2023-01-23T01:09:19;101735.51;;;7.14;60.16
3748;BME280;1889;50.058;8.688;2023-01-23T01:11:49;101725.58;;;7.18;59.75
3748;BME280;1889;50.058;8.688;2023-01-23T01:14:18;101727.16;;;6.74;59.83
3748;BME280;1889;50.058;8.688;2023-01-23T01:16:47;101727.34;;;6.80;60.51
3748;BME280;1889;50.058;8.688;2023-01-23T01:19:17;101734.56;;;6.92;60.25
3748;BME280;1889;50.058;8.688;2023-01-23T01:21:47;101743.19;;;7.06;59.80
3748;BME280;1889;50.058;8.688;2023-01-23T01:24:16;101736.34;;;6.93;59.85
3748;BME280;1889;50.058;8.688;2023-01-23T01:26:45;101739.58;;;6.82;60.07
3748;BME280;1889;50.058;8.688;2023-01-23T01:29:15;101740.48;;;6.47;60.50
3748;BME280;1889;50.058;8.688;2023-01-23T01:31:44;101743.27;;;6.72;60.25
3748;BME280;1889;50.058;8.688;2023-01-23T01:34:13;101744.82;;;6.64;60.32
3748;BME280;1889;50.058;8.688;2023-01-23T01:36:42;101748.69;;;6.79;59.97
3748;BME280;1889;50.058;8.688;2023-01-23T01:39:12;101749.06;;;6.77;59.94
3748;BME280;1889;50.058;8.688;2023-01-23T01:41:41;101747.45;;;7.01;59.28
3748;BME280;1889;50.058;8.688;2023-01-23T01:44:23;101752.80;;;6.87;59.47
3748;BME280;1889;50.058;8.688;2023-01-23T01:46:48;101753.48;;;6.97;59.10
3748;BME280;1889;50.058;8.688;2023-01-23T01:49:22;101751.11;;;6.90;59.19
3748;BME280;1889;50.058;8.688;2023-01-23T01:52:07;101755.53;;;6.57;59.31
3748;BME280;1889;50.058;8.688;2023-01-23T01:54:37;101752.02;;;6.72;59.41
3748;BME280;1889;50.058;8.688;2023-01-23T01:57:12;101757.91;;;6.65;59.81
3748;BME280;1889;50.058;8.688;2023-01-23T02:05:15;101765.28;;;6.12;60.79
3748;BME280;1889;50.058;8.688;2023-01-23T02:07:56;101766.25;;;6.33;60.62
3748;BME280;1889;50.058;8.688;2023-01-23T02:10:26;101762.96;;;6.23;60.85
3748;BME280;1889;50.058;8.688;2023-01-23T02:13:13;101755.09;;;6.06;60.99
3748;BME280;1889;50.058;8.688;2023-01-23T02:15:26;101763.77;;;6.38;60.38
3748;BME280;1889;50.058;8.688;2023-01-23T02:17:55;101755.61;;;6.43;60.21
3748;BME280;1889;50.058;8.688;2023-01-23T02:20:26;101768.06;;;6.03;60.85
3748;BME280;1889;50.058;8.688;2023-01-23T02:23:00;101765.90;;;6.20;60.46
3748;BME280;1889;50.058;8.688;2023-01-23T02:28:12;101767.98;;;6.16;60.61
3748;BME280;1889;50.058;8.688;2023-01-23T02:30:43;101769.55;;;6.26;60.53
3748;BME280;1889;50.058;8.688;2023-01-23T02:35:52;101767.44;;;6.62;59.25
3748;BME280;1889;50.058;8.688;2023-01-23T02:38:25;101770.13;;;6.47;59.47
3748;BME280;1889;50.058;8.688;2023-01-23T02:40:55;101767.20;;;6.70;58.73
3748;BME280;1889;50.058;8.688;2023-01-23T02:43:27;101774.31;;;6.08;60.34
3748;BME280;1889;50.058;8.688;2023-01-23T02:46:01;101777.77;;;6.57;59.38
3748;BME280;1889;50.058;8.688;2023-01-23T02:48:31;101778.35;;;6.45;59.31
3748;BME280;1889;50.058;8.688;2023-01-23T02:51:00;101788.96;;;6.51;59.78
3748;BME280;1889;50.058;8.688;2023-01-23T02:53:29;101788.59;;;6.54;59.82
3748;BME280;1889;50.058;8.688;2023-01-23T02:55:59;101783.88;;;6.75;59.48
3748;BME280;1889;50.058;8.688;2023-01-23T02:58:28;101781.52;;;7.03;58.64
3748;BME280;1889;50.058;8.688;2023-01-23T03:01:15;101778.83;;;6.82;59.12
3748;BME280;1889;50.058;8.688;2023-01-23T03:03:44;101776.95;;;6.94;59.13
3748;BME280;1889;50.058;8.688;2023-01-23T03:06:14;101780.55;;;6.80;59.01
3748;BME280;1889;50.058;8.688;2023-01-23T03:08:43;101788.02;;;6.48;60.25
3748;BME280;1889;50.058;8.688;2023-01-23T03:11:17;101783.88;;;6.75;59.97
3748;BME280;1889;50.058;8.688;2023-01-23T03:13:47;101787.23;;;6.03;61.35
3748;BME280;1889;50.058;8.688;2023-01-23T03:16:16;101796.55;;;6.09;61.74
3748;BME280;1889;50.058;8.688;2023-01-23T03:18:46;101795.59;;;6.22;61.48
3748;BME280;1889;50.058;8.688;2023-01-23T03:21:17;101804.81;;;6.75;60.16
3748;BME280;1889;50.058;8.688;2023-01-23T03:23:46;101807.31;;;6.53;60.54
3748;BME280;1889;50.058;8.688;2023-01-23T03:26:15;101805.94;;;6.34;60.29
3748;BME280;1889;50.058;8.688;2023-01-23T03:28:45;101802.87;;;6.18;61.67
3748;BME280;1889;50.058;8.688;2023-01-23T03:31:32;101798.73;;;5.94;62.13
3748;BME280;1889;50.058;8.688;2023-01-23T03:34:01;101803.74;;;6.34;61.39
3748;BME280;1889;50.058;8.688;2023-01-23T03:36:30;101805.39;;;6.46;61.10
3748;BME280;1889;50.058;8.688;2023-01-23T03:39:00;101799.98;;;6.73;60.67
3748;BME280;1889;50.058;8.688;2023-01-23T03:41:47;101805.21;;;6.07;61.65
3748;BME280;1889;50.058;8.688;2023-01-23T03:44:17;101803.65;;;5.84;62.84
3748;BME280;1889;50.058;8.688;2023-01-23T03:46:48;101802.63;;;6.40;61.59
3748;BME280;1889;50.058;8.688;2023-01-23T03:49:19;101810.44;;;6.23;61.53
3748;BME280;1889;50.058;8.688;2023-01-23T03:51:48;101808.39;;;6.28;61.96
3748;BME280;1889;50.058;8.688;2023-01-23T03:54:17;101803.59;;;6.28;61.44
3748;BME280;1889;50.058;8.688;2023-01-23T03:56:47;101803.29;;;6.01;62.64
3748;BME280;1889;50.058;8.688;2023-01-23T03:59:16;101801.39;;;6.27;61.74
3748;BME280;1889;50.058;8.688;2023-01-23T04:01:45;101802.24;;;5.81;62.86
3748;BME280;1889;50.058;8.688;2023-01-23T04:04:15;101802.63;;;6.41;61.49
3748;BME280;1889;50.058;8.688;2023-01-23T04:06:44;101801.58;;;6.68;60.82
3748;BME280;1889;50.058;8.688;2023-01-23T04:09:13;101798.03;;;6.66;60.70
3748;BME280;1889;50.058;8.688;2023-01-23T04:11:43;101796.02;;;6.90;60.13
3748;BME280;1889;50.058;8.688;2023-01-23T04:14:12;101800.81;;;7.08;59.69
3748;BME280;1889;50.058;8.688;2023-01-23T04:16:41;101801.36;;;7.12;59.52
3748;BME280;1889;50.058;8.688;2023-01-23T04:19:11;101803.27;;;7.19;59.08
3748;BME280;1889;50.058;8.688;2023-01-23T04:21:40;101803.58;;;6.95;59.24
3748;BME280;1889;50.058;8.688;2023-01-23T04:24:10;101810.73;;;6.85;59.70
3748;BME280;1889;50.058;8.688;2023-01-23T04:26:39;101807.84;;;6.73;60.21
3748;BME280;1889;50.058;8.688;2023-01-23T04:29:08;101805.36;;;6.79;60.25
3748;BME280;1889;50.058;8.688;2023-01-23T04:31:37;101795.60;;;6.90;59.89
3748;BME280;1889;50.058;8.688;2023-01-23T04:34:07;101803.63;;;6.98;59.65
3748;BME280;1889;50.058;8.688;2023-01-23T04:36:36;101796.44;;;6.88;59.65
3748;BME280;1889;50.058;8.688;2023-01-23T04:39:06;101795.06;;;7.04;59.52
3748;BME280;1889;50.058;8.688;2023-01-23T04:41:35;101803.40;;;6.87;59.75
3748;BME280;1889;50.058;8.688;2023-01-23T04:44:04;101800.61;;;6.81;59.62
3748;BME280;1889;50.058;8.688;2023-01-23T04:46:49;101798.87;;;6.63;59.75
3748;BME280;1889;50.058;8.688;2023-01-23T04:49:21;101804.19;;;7.02;58.97
3748;BME280;1889;50.058;8.688;2023-01-23T04:51:52;101797.02;;;7.14;58.55
3748;BME280;1889;50.058;8.688;2023-01-23T04:54:21;101800.66;;;7.19;58.13
3748;BME280;1889;50.058;8.688;2023-01-23T04:56:51;101799.22;;;7.14;58.40
3748;BME280;1889;50.058;8.688;2023-01-23T04:59:20;101799.30;;;6.81;58.48
3748;BME280;1889;50.058;8.688;2023-01-23T05:01:49;101797.08;;;6.97;58.98
3748;BME280;1889;50.058;8.688;2023-01-23T05:04:19;101797.92;;;6.96;59.06
3748;BME280;1889;50.058;8.688;2023-01-23T05:06:49;101793.72;;;7.02;58.87
3748;BME280;1889;50.058;8.688;2023-01-23T05:09:18;101803.83;;;7.24;58.44
3748;BME280;1889;50.058;8.688;2023-01-23T05:11:48;101794.62;;;7.23;58.30
3748;BME280;1889;50.058;8.688;2023-01-23T05:14:17;101804.70;;;7.06;58.11
3748;BME280;1889;50.058;8.688;2023-01-23T05:16:46;101812.05;;;6.68;58.38
3748;BME280;1889;50.058;8.688;2023-01-23T05:19:15;101813.02;;;7.07;58.49
3748;BME280;1889;50.058;8.688;2023-01-23T05:21:45;101816.28;;;7.16;58.30
3748;BME280;1889;50.058;8.688;2023-01-23T05:24:14;101819.67;;;7.49;57.26
3748;BME280;1889;50.058;8.688;2023-01-23T05:26:44;101819.42;;;7.39;57.69
3748;BME280;1889;50.058;8.688;2023-01-23T05:29:13;101820.80;;;7.23;57.08
3748;BME280;1889;50.058;8.688;2023-01-23T05:31:42;101832.93;;;7.01;58.34
3748;BME280;1889;50.058;8.688;2023-01-23T05:34:12;101833.05;;;7.24;58.35
3748;BME280;1889;50.058;8.688;2023-01-23T05:36:41;101839.06;;;7.39;57.66
3748;BME280;1889;50.058;8.688;2023-01-23T05:39:10;101837.13;;;7.49;57.55
3748;BME280;1889;50.058;8.688;2023-01-23T05:41:40;101839.95;;;7.39;57.94
3748;BME280;1889;50.058;8.688;2023-01-23T05:44:09;101842.31;;;7.47;57.96
3748;BME280;1889;50.058;8.688;2023-01-23T05:46:38;101846.78;;;7.70;56.79
3748;BME280;1889;50.058;8.688;2023-01-23T05:49:08;101846.11;;;7.60;57.28
3748;BME280;1889;50.058;8.688;2023-01-23T05:51:37;101854.00;;;7.24;57.68
3748;BME280;1889;50.058;8.688;2023-01-23T05:54:06;101857.44;;;7.40;57.93
3748;BME280;1889;50.058;8.688;2023-01-23T05:56:36;101857.61;;;7.48;57.29
3748;BME280;1889;50.058;8.688;2023-01-23T05:59:05;101858.54;;;7.50;57.15
3748;BME280;1889;50.058;8.688;2023-01-23T06:01:34;101858.77;;;7.23;57.67
3748;BME280;1889;50.058;8.688;2023-01-23T06:04:04;101857.02;;;7.41;57.32
3748;BME280;1889;50.058;8.688;2023-01-23T06:06:33;101856.63;;;7.43;57.15
3748;BME280;1889;50.058;8.688;2023-01-23T06:09:03;101858.33;;;7.41;57.01
3748;BME280;1889;50.058;8.688;2023-01-23T06:11:32;101855.68;;;7.20;57.59
3748;BME280;1889;50.058;8.688;2023-01-23T06:14:02;101854.60;;;7.31;57.49
3748;BME280;1889;50.058;8.688;2023-01-23T06:16:31;101868.27;;;7.01;57.69
3748;BME280;1889;50.058;8.688;2023-01-23T06:19:00;101878.92;;;7.08;57.70
3748;BME280;1889;50.058;8.688;2023-01-23T06:21:30;101875.80;;;7.06;58.16
3748;BME280;1889;50.058;8.688;2023-01-23T06:23:59;101878.25;;;7.34;57.50
3748;BME280;1889;50.058;8.688;2023-01-23T06:26:28;101881.34;;;7.35;57.12
3748;BME280;1889;50.058;8.688;2023-01-23T06:28:57;101889.99;;;6.97;58.25
3748;BME280;1889;50.058;8.688;2023-01-23T06:31:27;101889.95;;;7.30;57.82
3748;BME280;1889;50.058;8.688;2023-01-23T06:33:58;101890.79;;;7.28;57.51
3748;BME280;1889;50.058;8.688;2023-01-23T06:36:28;101889.77;;;7.59;56.61
3748;BME280;1889;50.058;8.688;2023-01-23T06:38:57;101893.52;;;7.52;56.92
3748;BME280;1889;50.058;8.688;2023-01-23T06:41:26;101892.84;;;7.42;57.07
3748;BME280;1889;50.058;8.688;2023-01-23T06:43:56;101897.34;;;7.30;57.62
3748;BME280;1889;50.058;8.688;2023-01-23T06:46:25;101903.75;;;7.24;57.76
3748;BME280;1889;50.058;8.688;2023-01-23T06:48:54;101898.16;;;7.45;57.33
3748;BME280;1889;50.058;8.688;2023-01-23T06:51:24;101895.55;;;7.46;57.45
3748;BME280;1889;50.058;8.688;2023-01-23T06:53:53;101895.92;;;7.43;57.22
3748;BME280;1889;50.058;8.688;2023-01-23T06:56:23;101897.86;;;7.15;57.65
3748;BME280;1889;50.058;8.688;2023-01-23T06:58:52;101896.55;;;7.33;57.67
3748;BME280;1889;50.058;8.688;2023-01-23T07:01:22;101897.99;;;7.39;57.35
3748;BME280;1889;50.058;8.688;2023-01-23T07:03:51;101901.13;;;7.24;57.61
3748;BME280;1889;50.058;8.688;2023-01-23T07:06:20;101906.27;;;7.19;57.71
3748;BME280;1889;50.058;8.688;2023-01-23T07:08:50;101904.96;;;7.38;57.19
3748;BME280;1889;50.058;8.688;2023-01-23T07:11:19;101898.03;;;7.21;57.51
3748;BME280;1889;50.058;8.688;2023-01-23T07:13:48;101898.31;;;7.34;57.21
3748;BME280;1889;50.058;8.688;2023-01-23T07:16:18;101892.74;;;7.37;57.04
3748;BME280;1889;50.058;8.688;2023-01-23T07:18:47;101897.86;;;7.15;57.56
3748;BME280;1889;50.058;8.688;2023-01-23T07:21:17;101896.22;;;7.19;57.45
3748;BME280;1889;50.058;8.688;2023-01-23T07:23:46;101899.77;;;7.21;57.40
3748;BME280;1889;50.058;8.688;2023-01-23T07:26:15;101905.57;;;7.09;57.02
3748;BME280;1889;50.058;8.688;2023-01-23T07:28:44;101910.33;;;6.91;57.67
3748;BME280;1889;50.058;8.688;2023-01-23T07:31:14;101914.30;;;6.93;57.68
3748;BME280;1889;50.058;8.688;2023-01-23T07:33:43;101917.16;;;7.02;57.44
3748;BME280;1889;50.058;8.688;2023-01-23T07:36:13;101920.17;;;6.84;57.90
3748;BME280;1889;50.058;8.688;2023-01-23T07:38:42;101933.62;;;6.82;58.04
3748;BME280;1889;50.058;8.688;2023-01-23T07:41:12;101932.63;;;6.77;58.13
3748;BME280;1889;50.058;8.688;2023-01-23T07:43:41;101937.98;;;6.97;57.63
3748;BME280;1889;50.058;8.688;2023-01-23T07:46:11;101942.62;;;6.92;57.63
3748;BME280;1889;50.058;8.688;2023-01-23T07:48:40;101948.58;;;6.86;57.88
3748;BME280;1889;50.058;8.688;2023-01-23T07:51:09;101943.81;;;6.87;58.08
3748;BME280;1889;50.058;8.688;2023-01-23T07:53:39;101948.53;;;6.84;57.82
3748;BME280;1889;50.058;8.688;2023-01-23T07:56:08;101961.09;;;6.80;58.39
3748;BME280;1889;50.058;8.688;2023-01-23T07:58:37;101961.31;;;6.89;58.39
3748;BME280;1889;50.058;8.688;2023-01-23T08:01:08;101967.42;;;6.88;58.30
3748;BME280;1889;50.058;8.688;2023-01-23T08:03:38;101974.16;;;6.96;58.15
3748;BME280;1889;50.058;8.688;2023-01-23T08:06:07;101982.64;;;7.03;58.05
3748;BME280;1889;50.058;8.688;2023-01-23T08:08:38;101986.69;;;6.92;58.14
3748;BME280;1889;50.058;8.688;2023-01-23T08:11:08;101988.31;;;6.57;59.09
3748;BME280;1889;50.058;8.688;2023-01-23T08:13:39;101985.17;;;6.84;58.95
3748;BME280;1889;50.058;8.688;2023-01-23T08:16:08;101982.70;;;7.06;58.37
3748;BME280;1889;50.058;8.688;2023-01-23T08:18:37;101987.98;;;7.08;58.40
3748;BME280;1889;50.058;8.688;2023-01-23T08:21:08;101988.05;;;7.26;57.76
3748;BME280;1889;50.058;8.688;2023-01-23T08:23:38;101986.61;;;7.22;57.80
3748;BME280;1889;50.058;8.688;2023-01-23T08:26:15;101988.84;;;6.91;58.12
3748;BME280;1889;50.058;8.688;2023-01-23T08:28:42;101996.42;;;6.98;58.54
3748;BME280;1889;50.058;8.688;2023-01-23T08:31:11;101999.64;;;7.19;58.08
3748;BME280;1889;50.058;8.688;2023-01-23T08:33:41;101997.32;;;7.31;57.94
3748;BME280;1889;50.058;8.688;2023-01-23T08:36:13;101995.87;;;7.42;57.42
3748;BME280;1889;50.058;8.688;2023-01-23T08:38:42;101995.26;;;7.70;56.57
3748;BME280;1889;50.058;8.688;2023-01-23T08:41:12;101998.36;;;7.55;57.04
3748;BME280;1889;50.058;8.688;2023-01-23T08:43:41;101996.53;;;7.51;56.88
3748;BME280;1889;50.058;8.688;2023-01-23T08:46:11;101997.70;;;7.12;57.91
3748;BME280;1889;50.058;8.688;2023-01-23T08:48:40;102006.25;;;7.38;57.54
3748;BME280;1889;50.058;8.688;2023-01-23T08:51:11;102001.17;;;6.95;57.47
3748;BME280;1889;50.058;8.688;2023-01-23T08:53:41;102002.73;;;7.04;58.16
3748;BME280;1889;50.058;8.688;2023-01-23T08:56:16;102009.97;;;6.97;58.12
3748;BME280;1889;50.058;8.688;2023-01-23T08:58:46;102008.04;;;6.76;58.56
3748;BME280;1889;50.058;8.688;2023-01-23T09:01:18;102013.83;;;6.50;59.30
3748;BME280;1889;50.058;8.688;2023-01-23T09:03:48;102014.73;;;6.80;58.47
3748;BME280;1889;50.058;8.688;2023-01-23T09:06:19;102005.05;;;6.94;58.04
3748;BME280;1889;50.058;8.688;2023-01-23T09:08:49;102005.17;;;7.31;57.26
3748;BME280;1889;50.058;8.688;2023-01-23T09:11:19;102005.82;;;7.22;57.53
3748;BME280;1889;50.058;8.688;2023-01-23T09:13:50;102005.99;;;6.80;57.83
3748;BME280;1889;50.058;8.688;2023-01-23T09:16:19;102011.39;;;6.86;57.96
3748;BME280;1889;50.058;8.688;2023-01-23T09:18:48;102005.01;;;6.92;57.79
3748;BME280;1889;50.058;8.688;2023-01-23T09:21:18;102006.67;;;6.88;57.20
3748;BME280;1889;50.058;8.688;2023-01-23T09:23:47;102008.66;;;7.14;57.20
3748;BME280;1889;50.058;8.688;2023-01-23T09:26:17;101999.45;;;6.96;56.86
3748;BME280;1889;50.058;8.688;2023-01-23T09:28:46;102005.83;;;7.05;56.36
3748;BME280;1889;50.058;8.688;2023-01-23T09:31:15;102008.95;;;7.25;56.81
3748;BME280;1889;50.058;8.688;2023-01-23T09:33:46;102006.44;;;7.45;55.89
3748;BME280;1889;50.058;8.688;2023-01-23T09:36:16;102011.08;;;7.07;56.39
3748;BME280;1889;50.058;8.688;2023-01-23T09:38:47;102008.20;;;6.98;55.86
3748;BME280;1889;50.058;8.688;2023-01-23T09:41:19;102004.30;;;7.13;56.48
3748;BME280;1889;50.058;8.688;2023-01-23T09:46:56;102010.39;;;7.14;56.65
3748;BME280;1889;50.058;8.688;2023-01-23T09:49:48;102015.83;;;6.59;57.58
3748;BME280;1889;50.058;8.688;2023-01-23T09:52:19;102013.70;;;6.91;57.18
3748;BME280;1889;50.058;8.688;2023-01-23T09:57:55;102016.51;;;7.47;55.78
3748;BME280;1889;50.058;8.688;2023-01-23T10:00:27;102010.44;;;6.10;59.18
3748;BME280;1889;50.058;8.688;2023-01-23T10:03:01;102014.73;;;6.36;59.05
3748;BME280;1889;50.058;8.688;2023-01-23T10:05:40;102005.11;;;6.65;58.33
3748;BME280;1889;50.058;8.688;2023-01-23T10:08:19;102002.64;;;7.01;57.77
3748;BME280;1889;50.058;8.688;2023-01-23T10:10:56;102005.89;;;6.93;57.38
3748;BME280;1889;50.058;8.688;2023-01-23T10:21:59;102014.27;;;6.79;57.02
3748;BME280;1889;50.058;8.688;2023-01-23T10:24:38;102010.82;;;6.98;57.51
3748;BME280;1889;50.058;8.688;2023-01-23T10:27:12;102013.68;;;7.05;57.49
3748;BME280;1889;50.058;8.688;2023-01-23T10:29:41;102004.05;;;6.59;57.31
3748;BME280;1889;50.058;8.688;2023-01-23T10:32:17;102016.99;;;6.84;57.33
3748;BME280;1889;50.058;8.688;2023-01-23T10:34:54;102008.63;;;7.28;55.93
3748;BME280;1889;50.058;8.688;2023-01-23T10:37:54;102011.70;;;6.82;56.48
3748;BME280;1889;50.058;8.688;2023-01-23T10:40:23;102011.41;;;6.56;57.50
3748;BME280;1889;50.058;8.688;2023-01-23T10:43:21;102018.74;;;6.25;57.57
3748;BME280;1889;50.058;8.688;2023-01-23T10:45:50;102013.53;;;6.39;57.48
3748;BME280;1889;50.058;8.688;2023-01-23T10:48:45;102012.48;;;6.78;57.08
3748;BME280;1889;50.058;8.688;2023-01-23T10:59:30;102007.90;;;7.51;55.41
3748;BME280;1889;50.058;8.688;2023-01-23T11:04:47;102007.22;;;7.96;54.14
3748;BME280;1889;50.058;8.688;2023-01-23T11:07:23;102010.00;;;7.83;54.13
3748;BME280;1889;50.058;8.688;2023-01-23T11:09:55;102001.81;;;7.70;54.63
3748;BME280;1889;50.058;8.688;2023-01-23T11:12:33;101995.66;;;7.86;54.09
3748;BME280;1889;50.058;8.688;2023-01-23T11:17:53;101988.48;;;7.43;55.23
3748;BME280;1889;50.058;8.688;2023-01-23T11:23:15;101987.48;;;6.89;55.65
3748;BME280;1889;50.058;8.688;2023-01-23T11:25:50;101990.50;;;6.72;56.60
3748;BME280;1889;50.058;8.688;2023-01-23T11:29:26;101982.25;;;7.22;55.94
3748;BME280;1889;50.058;8.688;2023-01-23T11:34:00;101986.19;;;7.22;55.48
3748;BME280;1889;50.058;8.688;2023-01-23T11:41:48;101970.92;;;6.89;56.19
3748;BME280;1889;50.058;8.688;2023-01-23T11:44:24;101962.11;;;7.54;55.22
3748;BME280;1889;50.058;8.688;2023-01-23T12:01:06;101960.80;;;7.54;55.45
3748;BME280;1889;50.058;8.688;2023-01-23T12:06:45;101954.61;;;6.83;55.78
3748;BME280;1889;50.058;8.688;2023-01-23T12:09:14;101957.70;;;6.53;56.75
3748;BME280;1889;50.058;8.688;2023-01-23T12:12:22;101964.16;;;6.97;56.25
3748;BME280;1889;50.058;8.688;2023-01-23T12:14:56;101958.30;;;7.07;55.55
3748;BME280;1889;50.058;8.688;2023-01-23T12:25:36;101934.91;;;7.66;55.00
3748;BME280;1889;50.058;8.688;2023-01-23T12:28:15;101929.58;;;8.01;54.48
3748;BME280;1889;50.058;8.688;2023-01-23T12:30:48;101930.61;;;7.89;54.33
3748;BME280;1889;50.058;8.688;2023-01-23T12:33:28;101929.02;;;7.58;54.93
3748;BME280;1889;50.058;8.688;2023-01-23T12:39:12;101918.63;;;8.62;53.84
3748;BME280;1889;50.058;8.688;2023-01-23T12:41:46;101920.84;;;8.41;53.25
3748;BME280;1889;50.058;8.688;2023-01-23T12:44:28;101921.20;;;8.37;53.59
3748;BME280;1889;50.058;8.688;2023-01-23T12:46:59;101918.41;;;8.50;53.49
3748;BME280;1889;50.058;8.688;2023-01-23T12:49:48;101913.94;;;8.05;53.88
3748;BME280;1889;50.058;8.688;2023-01-23T12:52:20;101910.58;;;8.53;53.32
3748;BME280;1889;50.058;8.688;2023-01-23T12:57:39;101901.36;;;8.52;52.79
3748;BME280;1889;50.058;8.688;2023-01-23T13:00:37;101898.44;;;8.35;52.80
3748;BME280;1889;50.058;8.688;2023-01-23T13:08:39;101893.34;;;8.03;53.65
3748;BME280;1889;50.058;8.688;2023-01-23T13:11:23;101896.98;;;7.51;54.17
3748;BME280;1889;50.058;8.688;2023-01-23T13:16:59;101888.67;;;7.89;54.22
3748;BME280;1889;50.058;8.688;2023-01-23T13:19:32;101889.05;;;7.87;53.95
3748;BME280;1889;50.058;8.688;2023-01-23T13:22:25;101885.28;;;7.93;54.22
3748;BME280;1889;50.058;8.688;2023-01-23T13:27:53;101886.83;;;8.05;53.92
3748;BME280;1889;50.058;8.688;2023-01-23T13:33:18;101886.78;;;8.43;52.69
3748;BME280;1889;50.058;8.688;2023-01-23T13:35:50;101884.21;;;8.25;54.00
3748;BME280;1889;50.058;8.688;2023-01-23T13:43:51;101870.50;;;7.76;54.37
3748;BME280;1889;50.058;8.688;2023-01-23T13:46:34;101872.94;;;7.31;55.97
3748;BME280;1889;50.058;8.688;2023-01-23T13:52:12;101873.29;;;7.65;55.44
3748;BME280;1889;50.058;8.688;2023-01-23T13:55:02;101872.31;;;7.80;55.24
3748;BME280;1889;50.058;8.688;2023-01-23T13:57:49;101874.01;;;7.20;55.67
3748;BME280;1889;50.058;8.688;2023-01-23T14:00:21;101871.70;;;7.34;55.90
3748;BME280;1889;50.058;8.688;2023-01-23T14:06:05;101866.23;;;8.01;55.26
3748;BME280;1889;50.058;8.688;2023-01-23T14:08:50;101867.55;;;8.03;55.11
3748;BME280;1889;50.058;8.688;2023-01-23T14:11:17;101871.11;;;8.47;53.73
3748;BME280;1889;50.058;8.688;2023-01-23T14:13:52;101869.80;;;8.70;53.57
3748;BME280;1889;50.058;8.688;2023-01-23T14:16:45;101870.00;;;8.36;53.44
3748;BME280;1889;50.058;8.688;2023-01-23T14:22:02;101861.15;;;8.51;52.90
3748;BME280;1889;50.058;8.688;2023-01-23T14:24:46;101868.97;;;8.73;53.56
3748;BME280;1889;50.058;8.688;2023-01-23T14:27:34;101868.73;;;8.59;53.74
3748;BME280;1889;50.058;8.688;2023-01-23T14:30:18;101866.09;;;8.84;53.19
3748;BME280;1889;50.058;8.688;2023-01-23T14:32:47;101870.91;;;8.85;53.32
3748;BME280;1889;50.058;8.688;2023-01-23T14:35:23;101868.42;;;8.92;52.44
3748;BME280;1889;50.058;8.688;2023-01-23T14:37:49;101864.52;;;8.69;52.14
3748;BME280;1889;50.058;8.688;2023-01-23T14:40:21;101862.52;;;8.32;53.23
3748;BME280;1889;50.058;8.688;2023-01-23T14:45:30;101865.36;;;8.43;53.30
3748;BME280;1889;50.058;8.688;2023-01-23T14:48:02;101869.84;;;8.49;53.38
3748;BME280;1889;50.058;8.688;2023-01-23T14:50:32;101865.70;;;8.19;53.44
3748;BME280;1889;50.058;8.688;2023-01-23T14:53:04;101872.91;;;8.29;53.76
3748;BME280;1889;50.058;8.688;2023-01-23T14:55:38;101875.67;;;8.34;53.21
3748;BME280;1889;50.058;8.688;2023-01-23T14:58:16;101879.31;;;8.22;53.91
3748;BME280;1889;50.058;8.688;2023-01-23T15:00:44;101875.11;;;8.30;53.49
3748;BME280;1889;50.058;8.688;2023-01-23T15:06:05;101880.55;;;8.59;53.40
3748;BME280;1889;50.058;8.688;2023-01-23T15:08:35;101880.83;;;8.53;53.02
3748;BME280;1889;50.058;8.688;2023-01-23T15:11:05;101878.88;;;8.41;52.53
3748;BME280;1889;50.058;8.688;2023-01-23T15:13:42;101880.70;;;8.25;53.46
3748;BME280;1889;50.058;8.688;2023-01-23T15:16:23;101875.68;;;7.93;54.08
3748;BME280;1889;50.058;8.688;2023-01-23T15:19:01;101878.08;;;8.04;54.21
3748;BME280;1889;50.058;8.688;2023-01-23T15:21:39;101878.77;;;7.96;54.92
3748;BME280;1889;50.058;8.688;2023-01-23T15:26:56;101877.39;;;8.13;54.88
3748;BME280;1889;50.058;8.688;2023-01-23T15:29:18;101876.06;;;7.91;55.63
3748;BME280;1889;50.058;8.688;2023-01-23T15:31:49;101883.48;;;8.11;55.27
3748;BME280;1889;50.058;8.688;2023-01-23T15:34:27;101880.86;;;8.12;55.25
3748;BME280;1889;50.058;8.688;2023-01-23T15:39:55;101885.23;;;7.16;58.37
3748;BME280;1889;50.058;8.688;2023-01-23T15:42:28;101887.39;;;6.98;58.13
3748;BME280;1889;50.058;8.688;2023-01-23T15:44:58;101892.62;;;7.15;58.26
3748;BME280;1889;50.058;8.688;2023-01-23T15:47:31;101894.76;;;6.96;58.95
3748;BME280;1889;50.058;8.688;2023-01-23T15:50:02;101888.94;;;6.73;59.50